sensor_id;sensor_type;location;lat;lon;timestamp;temperature;humidity
17849;DHT22;9050;48.746;9.232;2023-02-10T00:00:32;-1.10;99.90
17849;DHT22;9050;48.746;9.232;2023-02-10T00:02:59;-1.10;99.90
17849;DHT22;9050;48.746;9.232;2023-02-10T00:05:26;-1.10;99.90
17849;DHT22;9050;48.746;9.232;2023-02-10T00:07:53;-1.00;99.90
17849;DHT22;9050;48.746;9.232;2023-02-10T00:10:21;-1.10;99.90
17849;DHT22;9050;48.746;9.232;2023-02-10T00:12:48;-1.00;99.90
17849;DHT22;9050;48.746;9.232;2023-02-10T00:15:14;-1.00;99.90
17849;DHT22;9050;48.746;9.232;2023-02-10T00:17:41;-1.10;99.90
17849;DHT22;9050;48.746;9.232;2023-02-10T00:20:09;-1.10;99.90
17849;DHT22;9050;48.746;9.232;2023-02-10T00:22:36;-1.00;99.90
17849;DHT22;9050;48.746;9.232;2023-02-10T00:25:03;-1.00;99.90
17849;DHT22;9050;48.746;9.232;2023-02-10T00:27:31;-1.00;99.90
17849;DHT22;9050;48.746;9.232;2023-02-10T00:29:58;-1.10;99.90
17849;DHT22;9050;48.746;9.232;2023-02-10T00:32:25;-1.10;99.90
17849;DHT22;9050;48.746;9.232;2023-02-10T00:34:51;-1.10;99.90
17849;DHT22;9050;48.746;9.232;2023-02-10T00:37:18;-1.10;99.90
17849;DHT22;9050;48.746;9.232;2023-02-10T00:39:45;-1.10;99.90
17849;DHT22;9050;48.746;9.232;2023-02-10T00:42:12;-1.20;99.90
17849;DHT22;9050;48.746;9.232;2023-02-10T00:44:40;-1.20;99.90
17849;DHT22;9050;48.746;9.232;2023-02-10T00:47:07;-1.30;99.90
17849;DHT22;9050;48.746;9.232;2023-02-10T00:49:34;-1.40;99.90
17849;DHT22;9050;48.746;9.232;2023-02-10T00:52:01;-1.60;99.90
17849;DHT22;9050;48.746;9.232;2023-02-10T00:54:28;-1.80;99.90
17849;DHT22;9050;48.746;9.232;2023-02-10T00:56:55;-1.90;99.90
17849;DHT22;9050;48.746;9.232;2023-02-10T00:59:22;-2.00;99.90
17849;DHT22;9050;48.746;9.232;2023-02-10T01:01:50;-2.00;99.90
17849;DHT22;9050;48.746;9.232;2023-02-10T01:04:17;-2.00;99.90
17849;DHT22;9050;48.746;9.232;2023-02-10T01:06:44;-1.90;99.90
17849;DHT22;9050;48.746;9.232;2023-02-10T01:09:11;-1.80;99.90
17849;DHT22;9050;48.746;9.232;2023-02-10T01:11:37;-1.80;99.90
17849;DHT22;9050;48.746;9.232;2023-02-10T01:14:04;-1.80;99.90
17849;DHT22;9050;48.746;9.232;2023-02-10T01:16:31;-1.90;99.90
17849;DHT22;9050;48.746;9.232;2023-02-10T01:19:00;-1.90;99.90
17849;DHT22;9050;48.746;9.232;2023-02-10T01:21:27;-2.00;99.90
17849;DHT22;9050;48.746;9.232;2023-02-10T01:23:55;-2.10;99.90
17849;DHT22;9050;48.746;9.232;2023-02-10T01:26:22;-2.10;99.90
17849;DHT22;9050;48.746;9.232;2023-02-10T01:28:49;-2.10;99.90
17849;DHT22;9050;48.746;9.232;2023-02-10T01:31:17;-2.10;99.90
17849;DHT22;9050;48.746;9.232;2023-02-10T01:33:45;-2.00;99.90
17849;DHT22;9050;48.746;9.232;2023-02-10T01:36:18;-2.00;99.90
17849;DHT22;9050;48.746;9.232;2023-02-10T01:38:46;-1.90;99.90
17849;DHT22;9050;48.746;9.232;2023-02-10T01:41:14;-2.00;99.90
17849;DHT22;9050;48.746;9.232;2023-02-10T01:43:56;-1.90;99.90
17849;DHT22;9050;48.746;9.232;2023-02-10T01:46:24;-2.10;99.90
17849;DHT22;9050;48.746;9.232;2023-02-10T01:48:51;-2.10;99.90
17849;DHT22;9050;48.746;9.232;2023-02-10T01:51:24;-2.10;99.90
17849;DHT22;9050;48.746;9.232;2023-02-10T01:53:52;-2.20;99.90
17849;DHT22;9050;48.746;9.232;2023-02-10T01:56:20;-2.20;99.90
17849;DHT22;9050;48.746;9.232;2023-02-10T01:58:47;-2.20;99.90
17849;DHT22;9050;48.746;9.232;2023-02-10T02:01:13;-2.20;99.90
17849;DHT22;9050;48.746;9.232;2023-02-10T02:03:41;-2.30;99.90
17849;DHT22;9050;48.746;9.232;2023-02-10T02:06:08;-2.30;99.90
17849;DHT22;9050;48.746;9.232;2023-02-10T02:08:37;-2.50;99.90
17849;DHT22;9050;48.746;9.232;2023-02-10T02:11:13;-2.60;99.90
17849;DHT22;9050;48.746;9.232;2023-02-10T02:16:52;-2.80;99.90
17849;DHT22;9050;48.746;9.232;2023-02-10T02:32:27;-3.30;99.90
17849;DHT22;9050;48.746;9.232;2023-02-10T02:34:59;-3.30;99.90
17849;DHT22;9050;48.746;9.232;2023-02-10T02:37:31;-3.10;99.90
17849;DHT22;9050;48.746;9.232;2023-02-10T02:39:59;-3.20;99.90
17849;DHT22;9050;48.746;9.232;2023-02-10T02:42:29;-3.20;99.90
17849;DHT22;9050;48.746;9.232;2023-02-10T02:45:00;-3.10;99.90
17849;DHT22;9050;48.746;9.232;2023-02-10T02:50:33;-2.90;99.90
17849;DHT22;9050;48.746;9.232;2023-02-10T02:53:11;-2.80;99.90
17849;DHT22;9050;48.746;9.232;2023-02-10T02:55:50;-2.80;99.90
17849;DHT22;9050;48.746;9.232;2023-02-10T02:58:26;-2.80;99.90
17849;DHT22;9050;48.746;9.232;2023-02-10T03:00:58;-2.60;99.90
17849;DHT22;9050;48.746;9.232;2023-02-10T03:03:32;-2.60;99.90
17849;DHT22;9050;48.746;9.232;2023-02-10T03:05:59;-2.60;99.90
17849;DHT22;9050;48.746;9.232;2023-02-10T03:08:26;-2.60;99.90
17849;DHT22;9050;48.746;9.232;2023-02-10T03:10:54;-2.50;99.90
17849;DHT22;9050;48.746;9.232;2023-02-10T03:13:21;-2.40;99.90
17849;DHT22;9050;48.746;9.232;2023-02-10T03:15:48;-2.40;99.90
17849;DHT22;9050;48.746;9.232;2023-02-10T03:18:15;-2.40;99.90
17849;DHT22;9050;48.746;9.232;2023-02-10T03:20:44;-2.40;99.90
17849;DHT22;9050;48.746;9.232;2023-02-10T03:23:11;-2.40;99.90
17849;DHT22;9050;48.746;9.232;2023-02-10T03:25:37;-2.30;99.90
17849;DHT22;9050;48.746;9.232;2023-02-10T03:28:05;-2.20;99.90
17849;DHT22;9050;48.746;9.232;2023-02-10T03:30:33;-2.20;99.90
17849;DHT22;9050;48.746;9.232;2023-02-10T03:33:00;-2.30;99.90
17849;DHT22;9050;48.746;9.232;2023-02-10T03:35:27;-2.30;99.90
17849;DHT22;9050;48.746;9.232;2023-02-10T03:37:55;-2.30;99.90
17849;DHT22;9050;48.746;9.232;2023-02-10T03:40:22;-2.30;99.90
17849;DHT22;9050;48.746;9.232;2023-02-10T03:42:49;-2.20;99.90
17849;DHT22;9050;48.746;9.232;2023-02-10T03:45:16;-2.20;99.90
17849;DHT22;9050;48.746;9.232;2023-02-10T03:47:43;-2.20;99.90
17849;DHT22;9050;48.746;9.232;2023-02-10T03:50:10;-2.20;99.90
17849;DHT22;9050;48.746;9.232;2023-02-10T03:52:37;-2.20;99.90
17849;DHT22;9050;48.746;9.232;2023-02-10T03:55:06;-2.20;99.90
17849;DHT22;9050;48.746;9.232;2023-02-10T03:57:33;-2.20;99.90
17849;DHT22;9050;48.746;9.232;2023-02-10T04:00:00;-2.30;99.90
17849;DHT22;9050;48.746;9.232;2023-02-10T04:02:27;-2.30;99.90
17849;DHT22;9050;48.746;9.232;2023-02-10T04:04:54;-2.20;99.90
17849;DHT22;9050;48.746;9.232;2023-02-10T04:07:20;-2.30;99.90
17849;DHT22;9050;48.746;9.232;2023-02-10T04:09:47;-2.40;99.90
17849;DHT22;9050;48.746;9.232;2023-02-10T04:12:16;-2.40;99.90
17849;DHT22;9050;48.746;9.232;2023-02-10T04:14:43;-2.50;99.90
17849;DHT22;9050;48.746;9.232;2023-02-10T04:17:09;-2.50;99.90
17849;DHT22;9050;48.746;9.232;2023-02-10T04:19:36;-2.40;99.90
17849;DHT22;9050;48.746;9.232;2023-02-10T04:22:03;-2.40;99.90
17849;DHT22;9050;48.746;9.232;2023-02-10T04:24:30;-2.40;99.90
17849;DHT22;9050;48.746;9.232;2023-02-10T04:26:57;-2.40;99.90
17849;DHT22;9050;48.746;9.232;2023-02-10T04:29:25;-2.40;99.90
17849;DHT22;9050;48.746;9.232;2023-02-10T04:31:52;-2.50;99.90
17849;DHT22;9050;48.746;9.232;2023-02-10T04:34:19;-2.50;99.90
17849;DHT22;9050;48.746;9.232;2023-02-10T04:36:46;-2.60;99.90
17849;DHT22;9050;48.746;9.232;2023-02-10T04:39:13;-2.60;99.90
17849;DHT22;9050;48.746;9.232;2023-02-10T04:41:40;-2.70;99.90
17849;DHT22;9050;48.746;9.232;2023-02-10T04:44:07;-2.80;99.90
17849;DHT22;9050;48.746;9.232;2023-02-10T04:46:35;-2.80;99.90
17849;DHT22;9050;48.746;9.232;2023-02-10T04:49:02;-2.90;99.90
17849;DHT22;9050;48.746;9.232;2023-02-10T04:51:29;-2.90;99.90
17849;DHT22;9050;48.746;9.232;2023-02-10T04:53:56;-2.90;99.90
17849;DHT22;9050;48.746;9.232;2023-02-10T04:56:22;-3.00;99.90
17849;DHT22;9050;48.746;9.232;2023-02-10T04:58:49;-3.00;99.90
17849;DHT22;9050;48.746;9.232;2023-02-10T05:01:16;-3.00;99.90
17849;DHT22;9050;48.746;9.232;2023-02-10T05:03:44;-3.10;99.90
17849;DHT22;9050;48.746;9.232;2023-02-10T05:06:13;-3.10;99.90
17849;DHT22;9050;48.746;9.232;2023-02-10T05:08:40;-3.20;99.90
17849;DHT22;9050;48.746;9.232;2023-02-10T05:11:08;-3.20;99.90
17849;DHT22;9050;48.746;9.232;2023-02-10T05:13:35;-3.30;99.90
17849;DHT22;9050;48.746;9.232;2023-02-10T05:16:03;-3.40;99.90
17849;DHT22;9050;48.746;9.232;2023-02-10T05:18:30;-3.40;99.90
17849;DHT22;9050;48.746;9.232;2023-02-10T05:20:59;-3.20;99.90
17849;DHT22;9050;48.746;9.232;2023-02-10T05:23:26;-3.30;99.90
17849;DHT22;9050;48.746;9.232;2023-02-10T05:25:53;-3.30;99.90
17849;DHT22;9050;48.746;9.232;2023-02-10T05:28:20;-3.20;99.90
17849;DHT22;9050;48.746;9.232;2023-02-10T05:30:48;-3.40;99.90
17849;DHT22;9050;48.746;9.232;2023-02-10T05:33:15;-3.20;99.90
17849;DHT22;9050;48.746;9.232;2023-02-10T05:35:42;-3.20;99.90
17849;DHT22;9050;48.746;9.232;2023-02-10T05:38:10;-3.20;99.90
17849;DHT22;9050;48.746;9.232;2023-02-10T05:40:38;-3.30;99.90
17849;DHT22;9050;48.746;9.232;2023-02-10T05:43:05;-3.10;99.90
17849;DHT22;9050;48.746;9.232;2023-02-10T05:45:33;-3.10;99.90
17849;DHT22;9050;48.746;9.232;2023-02-10T05:48:00;-3.10;99.90
17849;DHT22;9050;48.746;9.232;2023-02-10T05:50:27;-3.00;99.90
17849;DHT22;9050;48.746;9.232;2023-02-10T05:52:54;-3.00;99.90
17849;DHT22;9050;48.746;9.232;2023-02-10T05:55:23;-3.00;99.90
17849;DHT22;9050;48.746;9.232;2023-02-10T05:57:51;-3.00;99.90
17849;DHT22;9050;48.746;9.232;2023-02-10T06:00:18;-3.10;99.90
17849;DHT22;9050;48.746;9.232;2023-02-10T06:02:45;-3.10;99.90
17849;DHT22;9050;48.746;9.232;2023-02-10T06:05:12;-3.10;99.90
17849;DHT22;9050;48.746;9.232;2023-02-10T06:07:39;-3.00;99.90
17849;DHT22;9050;48.746;9.232;2023-02-10T06:10:06;-3.00;99.90
17849;DHT22;9050;48.746;9.232;2023-02-10T06:12:35;-3.00;99.90
17849;DHT22;9050;48.746;9.232;2023-02-10T06:15:02;-3.00;99.90
17849;DHT22;9050;48.746;9.232;2023-02-10T06:17:29;-3.00;99.90
17849;DHT22;9050;48.746;9.232;2023-02-10T06:19:56;-3.00;99.90
17849;DHT22;9050;48.746;9.232;2023-02-10T06:22:23;-3.10;99.90
17849;DHT22;9050;48.746;9.232;2023-02-10T06:24:50;-3.20;99.90
17849;DHT22;9050;48.746;9.232;2023-02-10T06:27:17;-3.30;99.90
17849;DHT22;9050;48.746;9.232;2023-02-10T06:29:45;-3.40;99.90
17849;DHT22;9050;48.746;9.232;2023-02-10T06:32:13;-3.50;99.90
17849;DHT22;9050;48.746;9.232;2023-02-10T06:34:40;-3.50;99.90
17849;DHT22;9050;48.746;9.232;2023-02-10T06:37:07;-3.60;99.90
17849;DHT22;9050;48.746;9.232;2023-02-10T06:39:34;-3.50;99.90
17849;DHT22;9050;48.746;9.232;2023-02-10T06:42:01;-3.50;99.90
17849;DHT22;9050;48.746;9.232;2023-02-10T06:44:28;-3.50;99.90
17849;DHT22;9050;48.746;9.232;2023-02-10T06:46:56;-3.50;99.90
17849;DHT22;9050;48.746;9.232;2023-02-10T06:49:23;-3.50;99.90
17849;DHT22;9050;48.746;9.232;2023-02-10T06:51:50;-3.40;99.90
17849;DHT22;9050;48.746;9.232;2023-02-10T06:54:17;-3.50;99.90
17849;DHT22;9050;48.746;9.232;2023-02-10T06:56:44;-3.50;99.90
17849;DHT22;9050;48.746;9.232;2023-02-10T06:59:12;-3.50;99.90
17849;DHT22;9050;48.746;9.232;2023-02-10T07:01:39;-3.50;99.90
17849;DHT22;9050;48.746;9.232;2023-02-10T07:04:08;-3.50;99.90
17849;DHT22;9050;48.746;9.232;2023-02-10T07:06:35;-3.50;99.90
17849;DHT22;9050;48.746;9.232;2023-02-10T07:09:02;-3.40;99.90
17849;DHT22;9050;48.746;9.232;2023-02-10T07:11:29;-3.40;99.90
17849;DHT22;9050;48.746;9.232;2023-02-10T07:13:57;-3.10;99.90
17849;DHT22;9050;48.746;9.232;2023-02-10T07:16:24;-2.60;99.90
17849;DHT22;9050;48.746;9.232;2023-02-10T07:18:51;-2.10;99.90
17849;DHT22;9050;48.746;9.232;2023-02-10T07:21:19;-1.50;99.90
17849;DHT22;9050;48.746;9.232;2023-02-10T07:23:46;-1.00;99.90
17849;DHT22;9050;48.746;9.232;2023-02-10T07:26:13;-0.60;99.90
17849;DHT22;9050;48.746;9.232;2023-02-10T07:28:43;-0.50;99.90
17849;DHT22;9050;48.746;9.232;2023-02-10T07:31:10;-0.50;99.90
17849;DHT22;9050;48.746;9.232;2023-02-10T07:33:37;-0.10;99.90
17849;DHT22;9050;48.746;9.232;2023-02-10T07:36:05;0.50;99.90
17849;DHT22;9050;48.746;9.232;2023-02-10T07:38:33;0.80;99.90
17849;DHT22;9050;48.746;9.232;2023-02-10T07:41:01;1.00;99.90
17849;DHT22;9050;48.746;9.232;2023-02-10T07:43:28;1.30;99.90
17849;DHT22;9050;48.746;9.232;2023-02-10T07:45:55;1.80;99.90
17849;DHT22;9050;48.746;9.232;2023-02-10T07:48:22;1.80;99.90
17849;DHT22;9050;48.746;9.232;2023-02-10T07:50:49;1.10;99.90
17849;DHT22;9050;48.746;9.232;2023-02-10T07:53:17;0.60;99.90
17849;DHT22;9050;48.746;9.232;2023-02-10T07:55:45;0.20;99.90
17849;DHT22;9050;48.746;9.232;2023-02-10T07:58:12;0.00;99.90
17849;DHT22;9050;48.746;9.232;2023-02-10T08:00:39;-0.70;99.90
17849;DHT22;9050;48.746;9.232;2023-02-10T08:58:59;-1.20;99.90
17849;DHT22;9050;48.746;9.232;2023-02-10T09:01:27;-1.10;99.90
17849;DHT22;9050;48.746;9.232;2023-02-10T09:03:54;-1.10;99.90
17849;DHT22;9050;48.746;9.232;2023-02-10T09:06:23;-1.00;99.90
17849;DHT22;9050;48.746;9.232;2023-02-10T09:08:51;-0.80;99.90
17849;DHT22;9050;48.746;9.232;2023-02-10T09:11:20;-0.70;99.90
17849;DHT22;9050;48.746;9.232;2023-02-10T09:13:49;-0.60;99.90
17849;DHT22;9050;48.746;9.232;2023-02-10T09:16:17;-0.60;99.90
17849;DHT22;9050;48.746;9.232;2023-02-10T09:18:44;-0.50;99.90
17849;DHT22;9050;48.746;9.232;2023-02-10T09:21:11;-0.40;99.90
17849;DHT22;9050;48.746;9.232;2023-02-10T09:23:38;-0.30;99.90
17849;DHT22;9050;48.746;9.232;2023-02-10T09:26:05;-0.20;99.90
17849;DHT22;9050;48.746;9.232;2023-02-10T09:28:33;-0.10;99.90
17849;DHT22;9050;48.746;9.232;2023-02-10T09:31:01;0.10;99.90
17849;DHT22;9050;48.746;9.232;2023-02-10T09:33:29;0.30;99.90
17849;DHT22;9050;48.746;9.232;2023-02-10T09:35:56;0.40;99.90
17849;DHT22;9050;48.746;9.232;2023-02-10T09:38:23;0.40;99.90
17849;DHT22;9050;48.746;9.232;2023-02-10T09:40:56;0.50;99.90
17849;DHT22;9050;48.746;9.232;2023-02-10T09:44:01;0.50;99.90
17849;DHT22;9050;48.746;9.232;2023-02-10T09:46:54;0.50;99.90
17849;DHT22;9050;48.746;9.232;2023-02-10T09:49:46;0.60;99.90
17849;DHT22;9050;48.746;9.232;2023-02-10T09:52:20;0.70;99.90
17849;DHT22;9050;48.746;9.232;2023-02-10T09:54:50;0.80;99.90
17849;DHT22;9050;48.746;9.232;2023-02-10T09:57:20;0.80;99.90
17849;DHT22;9050;48.746;9.232;2023-02-10T09:59:49;1.00;99.90
17849;DHT22;9050;48.746;9.232;2023-02-10T10:02:23;1.20;99.90
17849;DHT22;9050;48.746;9.232;2023-02-10T10:04:54;1.40;99.90
17849;DHT22;9050;48.746;9.232;2023-02-10T10:07:25;1.50;99.90
17849;DHT22;9050;48.746;9.232;2023-02-10T10:10:00;1.40;99.90
17849;DHT22;9050;48.746;9.232;2023-02-10T10:12:28;1.70;99.90
17849;DHT22;9050;48.746;9.232;2023-02-10T10:14:55;1.80;99.90
17849;DHT22;9050;48.746;9.232;2023-02-10T10:17:44;2.00;99.90
17849;DHT22;9050;48.746;9.232;2023-02-10T10:20:32;2.00;99.90
17849;DHT22;9050;48.746;9.232;2023-02-10T10:23:14;2.00;99.90
17849;DHT22;9050;48.746;9.232;2023-02-10T10:25:57;2.20;99.90
17849;DHT22;9050;48.746;9.232;2023-02-10T10:28:34;2.40;99.90
17849;DHT22;9050;48.746;9.232;2023-02-10T10:31:10;2.60;99.90
17849;DHT22;9050;48.746;9.232;2023-02-10T10:33:40;2.50;99.90
17849;DHT22;9050;48.746;9.232;2023-02-10T10:36:14;2.50;99.90
17849;DHT22;9050;48.746;9.232;2023-02-10T10:38:45;2.60;99.90
17849;DHT22;9050;48.746;9.232;2023-02-10T10:41:14;2.60;99.90
17849;DHT22;9050;48.746;9.232;2023-02-10T10:43:45;2.70;99.90
17849;DHT22;9050;48.746;9.232;2023-02-10T10:46:17;2.80;99.90
17849;DHT22;9050;48.746;9.232;2023-02-10T10:48:45;3.00;99.90
17849;DHT22;9050;48.746;9.232;2023-02-10T10:51:14;3.20;99.90
17849;DHT22;9050;48.746;9.232;2023-02-10T10:53:42;3.40;99.90
17849;DHT22;9050;48.746;9.232;2023-02-10T10:56:15;3.50;99.90
17849;DHT22;9050;48.746;9.232;2023-02-10T10:58:45;3.50;99.90
17849;DHT22;9050;48.746;9.232;2023-02-10T11:01:15;3.60;99.90
17849;DHT22;9050;48.746;9.232;2023-02-10T11:03:42;3.80;99.90
17849;DHT22;9050;48.746;9.232;2023-02-10T11:06:10;3.90;99.90
17849;DHT22;9050;48.746;9.232;2023-02-10T11:08:42;4.00;99.90
17849;DHT22;9050;48.746;9.232;2023-02-10T11:11:12;3.90;99.90
17849;DHT22;9050;48.746;9.232;2023-02-10T11:13:49;3.80;99.90
17849;DHT22;9050;48.746;9.232;2023-02-10T11:16:17;3.80;99.90
17849;DHT22;9050;48.746;9.232;2023-02-10T11:18:52;3.80;99.90
17849;DHT22;9050;48.746;9.232;2023-02-10T11:21:20;3.60;99.90
17849;DHT22;9050;48.746;9.232;2023-02-10T11:23:50;3.40;99.90
17849;DHT22;9050;48.746;9.232;2023-02-10T11:26:19;3.50;99.90
17849;DHT22;9050;48.746;9.232;2023-02-10T11:28:47;3.50;99.90
17849;DHT22;9050;48.746;9.232;2023-02-10T11:31:27;3.50;99.90
17849;DHT22;9050;48.746;9.232;2023-02-10T11:33:58;3.70;99.90
17849;DHT22;9050;48.746;9.232;2023-02-10T11:36:34;3.60;99.90
17849;DHT22;9050;48.746;9.232;2023-02-10T11:39:06;3.70;99.90
17849;DHT22;9050;48.746;9.232;2023-02-10T11:41:41;3.60;99.90
17849;DHT22;9050;48.746;9.232;2023-02-10T11:44:25;3.60;99.90
17849;DHT22;9050;48.746;9.232;2023-02-10T11:46:57;3.80;99.90
17849;DHT22;9050;48.746;9.232;2023-02-10T11:49:25;3.80;99.90
17849;DHT22;9050;48.746;9.232;2023-02-10T11:51:57;4.00;99.90
17849;DHT22;9050;48.746;9.232;2023-02-10T11:54:26;4.00;99.90
17849;DHT22;9050;48.746;9.232;2023-02-10T11:57:11;4.20;99.90
17849;DHT22;9050;48.746;9.232;2023-02-10T12:00:10;4.20;99.90
17849;DHT22;9050;48.746;9.232;2023-02-10T12:05:38;4.10;99.90
17849;DHT22;9050;48.746;9.232;2023-02-10T12:08:13;4.10;99.90
17849;DHT22;9050;48.746;9.232;2023-02-10T12:10:47;4.20;99.90
17849;DHT22;9050;48.746;9.232;2023-02-10T12:13:22;4.30;99.90
17849;DHT22;9050;48.746;9.232;2023-02-10T12:16:00;4.30;99.90
17849;DHT22;9050;48.746;9.232;2023-02-10T12:18:51;4.20;99.90
17849;DHT22;9050;48.746;9.232;2023-02-10T12:21:29;4.10;99.90
17849;DHT22;9050;48.746;9.232;2023-02-10T12:24:07;4.10;99.90
17849;DHT22;9050;48.746;9.232;2023-02-10T12:26:43;4.20;99.90
17849;DHT22;9050;48.746;9.232;2023-02-10T12:29:21;4.20;99.90
17849;DHT22;9050;48.746;9.232;2023-02-10T12:32:00;4.10;99.90
17849;DHT22;9050;48.746;9.232;2023-02-10T12:34:43;4.20;99.90
17849;DHT22;9050;48.746;9.232;2023-02-10T12:37:22;4.10;99.90
17849;DHT22;9050;48.746;9.232;2023-02-10T12:39:58;4.30;99.90
17849;DHT22;9050;48.746;9.232;2023-02-10T12:42:38;4.40;99.90
17849;DHT22;9050;48.746;9.232;2023-02-10T12:45:14;4.40;99.90
17849;DHT22;9050;48.746;9.232;2023-02-10T12:47:48;4.50;99.90
17849;DHT22;9050;48.746;9.232;2023-02-10T12:50:36;4.50;99.90
17849;DHT22;9050;48.746;9.232;2023-02-10T12:53:10;4.50;99.90
17849;DHT22;9050;48.746;9.232;2023-02-10T12:55:44;4.40;99.90
17849;DHT22;9050;48.746;9.232;2023-02-10T12:58:19;4.20;99.90
17849;DHT22;9050;48.746;9.232;2023-02-10T13:00:51;4.40;99.90
17849;DHT22;9050;48.746;9.232;2023-02-10T13:03:24;4.30;99.90
17849;DHT22;9050;48.746;9.232;2023-02-10T13:05:57;4.40;99.90
17849;DHT22;9050;48.746;9.232;2023-02-10T13:08:30;4.50;99.90
17849;DHT22;9050;48.746;9.232;2023-02-10T13:11:03;4.50;99.90
17849;DHT22;9050;48.746;9.232;2023-02-10T13:13:36;4.50;99.90
17849;DHT22;9050;48.746;9.232;2023-02-10T13:16:10;4.50;99.90
17849;DHT22;9050;48.746;9.232;2023-02-10T13:18:43;4.60;99.90
17849;DHT22;9050;48.746;9.232;2023-02-10T13:21:19;4.70;99.90
17849;DHT22;9050;48.746;9.232;2023-02-10T13:23:51;4.80;99.90
17849;DHT22;9050;48.746;9.232;2023-02-10T13:26:38;4.80;99.90
17849;DHT22;9050;48.746;9.232;2023-02-10T13:29:17;4.70;99.90
17849;DHT22;9050;48.746;9.232;2023-02-10T13:34:51;4.80;99.90
17849;DHT22;9050;48.746;9.232;2023-02-10T13:37:22;4.80;99.90
17849;DHT22;9050;48.746;9.232;2023-02-10T13:39:54;4.80;99.90
17849;DHT22;9050;48.746;9.232;2023-02-10T13:42:25;4.90;99.90
17849;DHT22;9050;48.746;9.232;2023-02-10T13:45:04;4.90;99.90
17849;DHT22;9050;48.746;9.232;2023-02-10T13:47:36;4.80;99.90
17849;DHT22;9050;48.746;9.232;2023-02-10T13:50:07;4.70;99.90
17849;DHT22;9050;48.746;9.232;2023-02-10T13:52:49;4.70;99.90
17849;DHT22;9050;48.746;9.232;2023-02-10T13:58:30;4.70;99.90
17849;DHT22;9050;48.746;9.232;2023-02-10T14:01:00;4.60;99.90
17849;DHT22;9050;48.746;9.232;2023-02-10T14:03:30;4.70;99.90
17849;DHT22;9050;48.746;9.232;2023-02-10T14:05:59;4.70;99.90
17849;DHT22;9050;48.746;9.232;2023-02-10T14:08:30;4.80;99.90
17849;DHT22;9050;48.746;9.232;2023-02-10T14:10:59;4.80;99.90
17849;DHT22;9050;48.746;9.232;2023-02-10T14:13:29;4.80;99.90
17849;DHT22;9050;48.746;9.232;2023-02-10T14:16:01;4.90;99.90
17849;DHT22;9050;48.746;9.232;2023-02-10T14:18:29;4.90;99.90
17849;DHT22;9050;48.746;9.232;2023-02-10T14:20:59;4.90;99.90
17849;DHT22;9050;48.746;9.232;2023-02-10T14:23:29;4.90;99.90
17849;DHT22;9050;48.746;9.232;2023-02-10T14:25:58;4.90;99.90
17849;DHT22;9050;48.746;9.232;2023-02-10T14:28:28;4.80;99.90
17849;DHT22;9050;48.746;9.232;2023-02-10T14:31:00;4.80;99.90
17849;DHT22;9050;48.746;9.232;2023-02-10T14:33:29;4.90;99.90
17849;DHT22;9050;48.746;9.232;2023-02-10T14:35:59;4.90;99.90
17849;DHT22;9050;48.746;9.232;2023-02-10T14:38:28;4.80;99.90
17849;DHT22;9050;48.746;9.232;2023-02-10T14:40:57;4.80;99.90
17849;DHT22;9050;48.746;9.232;2023-02-10T14:43:27;4.80;99.90
17849;DHT22;9050;48.746;9.232;2023-02-10T14:45:57;4.80;99.90
17849;DHT22;9050;48.746;9.232;2023-02-10T14:48:28;4.90;99.90
17849;DHT22;9050;48.746;9.232;2023-02-10T14:51:01;4.90;99.90
17849;DHT22;9050;48.746;9.232;2023-02-10T14:53:28;5.00;99.90
17849;DHT22;9050;48.746;9.232;2023-02-10T14:55:57;5.00;99.90
17849;DHT22;9050;48.746;9.232;2023-02-10T14:58:25;5.00;99.90
17849;DHT22;9050;48.746;9.232;2023-02-10T15:01:00;4.90;99.90
17849;DHT22;9050;48.746;9.232;2023-02-10T15:03:30;4.90;99.90
17849;DHT22;9050;48.746;9.232;2023-02-10T15:05:58;4.90;99.90
17849;DHT22;9050;48.746;9.232;2023-02-10T15:08:32;4.80;99.90
17849;DHT22;9050;48.746;9.232;2023-02-10T15:11:00;4.70;99.90
17849;DHT22;9050;48.746;9.232;2023-02-10T15:13:32;4.70;99.90
17849;DHT22;9050;48.746;9.232;2023-02-10T15:15:59;4.70;99.90
17849;DHT22;9050;48.746;9.232;2023-02-10T15:18:29;4.70;99.90
17849;DHT22;9050;48.746;9.232;2023-02-10T15:20:59;4.60;99.90
17849;DHT22;9050;48.746;9.232;2023-02-10T15:23:26;4.70;99.90
17849;DHT22;9050;48.746;9.232;2023-02-10T15:26:04;4.60;99.90
17849;DHT22;9050;48.746;9.232;2023-02-10T15:28:33;4.60;99.90
17849;DHT22;9050;48.746;9.232;2023-02-10T15:31:05;4.60;99.90
17849;DHT22;9050;48.746;9.232;2023-02-10T15:33:36;4.60;99.90
17849;DHT22;9050;48.746;9.232;2023-02-10T15:36:12;4.60;99.90
17849;DHT22;9050;48.746;9.232;2023-02-10T15:38:42;4.50;99.90
17849;DHT22;9050;48.746;9.232;2023-02-10T15:41:36;4.60;99.90
17849;DHT22;9050;48.746;9.232;2023-02-10T15:44:05;4.60;99.90
17849;DHT22;9050;48.746;9.232;2023-02-10T15:46:32;4.60;99.90
17849;DHT22;9050;48.746;9.232;2023-02-10T15:49:12;4.40;99.90
17849;DHT22;9050;48.746;9.232;2023-02-10T15:51:42;4.30;99.90
17849;DHT22;9050;48.746;9.232;2023-02-10T15:54:12;4.30;99.90
17849;DHT22;9050;48.746;9.232;2023-02-10T15:56:40;4.20;99.90
17849;DHT22;9050;48.746;9.232;2023-02-10T15:59:14;4.00;99.90
17849;DHT22;9050;48.746;9.232;2023-02-10T16:01:41;3.90;99.90
17849;DHT22;9050;48.746;9.232;2023-02-10T16:04:10;3.60;99.90
17849;DHT22;9050;48.746;9.232;2023-02-10T16:06:37;3.40;99.90
17849;DHT22;9050;48.746;9.232;2023-02-10T16:09:05;3.30;99.90
17849;DHT22;9050;48.746;9.232;2023-02-10T16:11:32;3.30;99.90
17849;DHT22;9050;48.746;9.232;2023-02-10T16:13:58;3.40;99.90
17849;DHT22;9050;48.746;9.232;2023-02-10T21:56:07;0.40;99.90
17849;DHT22;9050;48.746;9.232;2023-02-10T21:58:34;0.40;99.90
17849;DHT22;9050;48.746;9.232;2023-02-10T22:01:01;0.40;99.90
17849;DHT22;9050;48.746;9.232;2023-02-10T22:03:27;0.40;99.90
17849;DHT22;9050;48.746;9.232;2023-02-10T22:05:55;0.40;99.90
17849;DHT22;9050;48.746;9.232;2023-02-10T22:08:22;0.50;99.90
17849;DHT22;9050;48.746;9.232;2023-02-10T22:10:50;0.40;99.90
17849;DHT22;9050;48.746;9.232;2023-02-10T22:13:19;0.30;99.90
17849;DHT22;9050;48.746;9.232;2023-02-10T22:15:51;0.20;99.90
17849;DHT22;9050;48.746;9.232;2023-02-10T22:18:17;0.20;99.90
17849;DHT22;9050;48.746;9.232;2023-02-10T22:20:44;0.20;99.90
17849;DHT22;9050;48.746;9.232;2023-02-10T22:23:11;0.30;99.90
17849;DHT22;9050;48.746;9.232;2023-02-10T22:25:43;0.40;99.90
17849;DHT22;9050;48.746;9.232;2023-02-10T22:28:12;0.40;99.90
17849;DHT22;9050;48.746;9.232;2023-02-10T22:30:40;0.30;99.90
17849;DHT22;9050;48.746;9.232;2023-02-10T22:33:07;0.30;99.90
17849;DHT22;9050;48.746;9.232;2023-02-10T22:35:35;0.40;99.90
17849;DHT22;9050;48.746;9.232;2023-02-10T22:38:02;0.30;99.90
17849;DHT22;9050;48.746;9.232;2023-02-10T22:40:30;0.20;99.90
17849;DHT22;9050;48.746;9.232;2023-02-10T22:42:57;0.20;99.90
17849;DHT22;9050;48.746;9.232;2023-02-10T22:45:24;0.10;99.90
17849;DHT22;9050;48.746;9.232;2023-02-10T22:47:52;0.00;99.90
17849;DHT22;9050;48.746;9.232;2023-02-10T22:50:19;-0.10;99.90
17849;DHT22;9050;48.746;9.232;2023-02-10T22:52:46;-0.20;99.90
17849;DHT22;9050;48.746;9.232;2023-02-10T22:55:13;-0.20;99.90
17849;DHT22;9050;48.746;9.232;2023-02-10T22:57:40;-0.10;99.90
17849;DHT22;9050;48.746;9.232;2023-02-10T23:00:09;-0.30;99.90
17849;DHT22;9050;48.746;9.232;2023-02-10T23:02:36;-0.20;99.90
17849;DHT22;9050;48.746;9.232;2023-02-10T23:05:05;-0.10;99.90
17849;DHT22;9050;48.746;9.232;2023-02-10T23:07:31;-0.20;99.90
17849;DHT22;9050;48.746;9.232;2023-02-10T23:09:58;-0.30;99.90
17849;DHT22;9050;48.746;9.232;2023-02-10T23:12:25;-0.40;99.90